sensor_id;sensor_type;location;lat;lon;timestamp;temperature;humidity
44111;DHT22;29774;52.664;5.074;2024-01-30T00:01:13;6.40;88.80
44111;DHT22;29774;52.664;5.074;2024-01-30T00:03:39;6.40;88.90
44111;DHT22;29774;52.664;5.074;2024-01-30T00:06:04;6.40;88.90
44111;DHT22;29774;52.664;5.074;2024-01-30T00:08:30;6.50;89.00
44111;DHT22;29774;52.664;5.074;2024-01-30T00:10:56;6.60;88.90
44111;DHT22;29774;52.664;5.074;2024-01-30T00:13:21;6.70;89.00
44111;DHT22;29774;52.664;5.074;2024-01-30T00:15:48;6.70;88.90
44111;DHT22;29774;52.664;5.074;2024-01-30T00:18:14;6.70;88.90
44111;DHT22;29774;52.664;5.074;2024-01-30T00:20:40;6.60;88.90
44111;DHT22;29774;52.664;5.074;2024-01-30T00:23:05;6.60;88.90
44111;DHT22;29774;52.664;5.074;2024-01-30T00:25:31;6.50;89.00
44111;DHT22;29774;52.664;5.074;2024-01-30T00:27:58;6.40;89.00
44111;DHT22;29774;52.664;5.074;2024-01-30T00:30:24;6.40;89.10
44111;DHT22;29774;52.664;5.074;2024-01-30T00:32:49;6.40;89.10
44111;DHT22;29774;52.664;5.074;2024-01-30T00:35:15;6.40;89.20
44111;DHT22;29774;52.664;5.074;2024-01-30T00:37:41;6.40;89.20
44111;DHT22;29774;52.664;5.074;2024-01-30T00:40:07;6.40;89.30
44111;DHT22;29774;52.664;5.074;2024-01-30T00:42:33;6.40;89.30
44111;DHT22;29774;52.664;5.074;2024-01-30T00:44:59;6.40;89.40
44111;DHT22;29774;52.664;5.074;2024-01-30T00:47:24;6.50;89.50
44111;DHT22;29774;52.664;5.074;2024-01-30T00:49:50;6.50;89.50
44111;DHT22;29774;52.664;5.074;2024-01-30T00:52:15;6.60;89.50
44111;DHT22;29774;52.664;5.074;2024-01-30T00:54:41;6.70;89.50
44111;DHT22;29774;52.664;5.074;2024-01-30T00:57:07;6.70;89.50
44111;DHT22;29774;52.664;5.074;2024-01-30T00:59:32;6.80;89.50
44111;DHT22;29774;52.664;5.074;2024-01-30T01:01:58;6.90;89.50
44111;DHT22;29774;52.664;5.074;2024-01-30T01:04:24;6.90;89.40
44111;DHT22;29774;52.664;5.074;2024-01-30T01:06:52;6.90;89.40
44111;DHT22;29774;52.664;5.074;2024-01-30T01:09:17;6.90;89.40
44111;DHT22;29774;52.664;5.074;2024-01-30T01:11:43;7.00;89.40
44111;DHT22;29774;52.664;5.074;2024-01-30T01:14:08;7.00;89.40
44111;DHT22;29774;52.664;5.074;2024-01-30T01:16:34;7.10;89.40
44111;DHT22;29774;52.664;5.074;2024-01-30T01:19:00;7.00;89.40
44111;DHT22;29774;52.664;5.074;2024-01-30T01:21:25;7.00;89.40
44111;DHT22;29774;52.664;5.074;2024-01-30T01:23:51;7.00;89.50
44111;DHT22;29774;52.664;5.074;2024-01-30T01:26:17;7.00;89.50
44111;DHT22;29774;52.664;5.074;2024-01-30T01:28:42;7.10;89.60
44111;DHT22;29774;52.664;5.074;2024-01-30T01:31:08;7.20;89.60
44111;DHT22;29774;52.664;5.074;2024-01-30T01:33:34;7.20;89.60
44111;DHT22;29774;52.664;5.074;2024-01-30T01:36:01;7.20;89.60
44111;DHT22;29774;52.664;5.074;2024-01-30T01:38:29;7.20;89.70
44111;DHT22;29774;52.664;5.074;2024-01-30T01:40:55;7.20;89.70
44111;DHT22;29774;52.664;5.074;2024-01-30T01:43:21;7.30;89.70
44111;DHT22;29774;52.664;5.074;2024-01-30T01:45:46;7.40;89.70
44111;DHT22;29774;52.664;5.074;2024-01-30T01:48:12;7.40;89.70
44111;DHT22;29774;52.664;5.074;2024-01-30T01:50:39;7.40;89.60
44111;DHT22;29774;52.664;5.074;2024-01-30T01:53:07;7.40;89.70
44111;DHT22;29774;52.664;5.074;2024-01-30T01:55:33;7.40;89.70
44111;DHT22;29774;52.664;5.074;2024-01-30T01:58:00;7.40;89.70
44111;DHT22;29774;52.664;5.074;2024-01-30T02:00:27;7.30;89.70
44111;DHT22;29774;52.664;5.074;2024-01-30T02:02:53;7.30;89.70
44111;DHT22;29774;52.664;5.074;2024-01-30T02:05:20;7.30;89.80
44111;DHT22;29774;52.664;5.074;2024-01-30T02:07:46;7.20;89.80
44111;DHT22;29774;52.664;5.074;2024-01-30T02:10:12;7.20;89.80
44111;DHT22;29774;52.664;5.074;2024-01-30T02:12:38;7.20;89.80
44111;DHT22;29774;52.664;5.074;2024-01-30T02:15:04;7.20;89.80
44111;DHT22;29774;52.664;5.074;2024-01-30T02:17:30;7.20;89.90
44111;DHT22;29774;52.664;5.074;2024-01-30T02:19:56;7.20;89.80
44111;DHT22;29774;52.664;5.074;2024-01-30T02:22:22;7.20;89.80
44111;DHT22;29774;52.664;5.074;2024-01-30T02:24:49;7.20;89.80
44111;DHT22;29774;52.664;5.074;2024-01-30T02:27:15;7.30;89.80
44111;DHT22;29774;52.664;5.074;2024-01-30T02:29:40;7.20;89.80
44111;DHT22;29774;52.664;5.074;2024-01-30T02:32:06;7.20;89.80
44111;DHT22;29774;52.664;5.074;2024-01-30T02:34:33;7.20;89.80
44111;DHT22;29774;52.664;5.074;2024-01-30T02:36:58;7.20;89.80
44111;DHT22;29774;52.664;5.074;2024-01-30T02:39:24;7.20;89.70
44111;DHT22;29774;52.664;5.074;2024-01-30T02:41:50;7.20;89.80
44111;DHT22;29774;52.664;5.074;2024-01-30T02:44:16;7.20;89.80
44111;DHT22;29774;52.664;5.074;2024-01-30T02:46:41;7.20;89.70
44111;DHT22;29774;52.664;5.074;2024-01-30T02:49:07;7.20;89.70
44111;DHT22;29774;52.664;5.074;2024-01-30T02:51:32;7.20;89.70
44111;DHT22;29774;52.664;5.074;2024-01-30T02:53:58;7.20;89.70
44111;DHT22;29774;52.664;5.074;2024-01-30T02:56:24;7.50;89.70
44111;DHT22;29774;52.664;5.074;2024-01-30T02:58:50;7.60;89.60
44111;DHT22;29774;52.664;5.074;2024-01-30T03:01:15;7.80;89.50
44111;DHT22;29774;52.664;5.074;2024-01-30T03:03:41;7.90;89.40
44111;DHT22;29774;52.664;5.074;2024-01-30T03:06:07;8.00;89.20
44111;DHT22;29774;52.664;5.074;2024-01-30T03:08:33;8.10;88.90
44111;DHT22;29774;52.664;5.074;2024-01-30T03:11:00;8.10;88.60
44111;DHT22;29774;52.664;5.074;2024-01-30T03:13:26;8.10;88.40
44111;DHT22;29774;52.664;5.074;2024-01-30T03:15:51;8.10;88.30
44111;DHT22;29774;52.664;5.074;2024-01-30T03:18:17;8.20;88.20
44111;DHT22;29774;52.664;5.074;2024-01-30T03:20:43;8.20;88.10
44111;DHT22;29774;52.664;5.074;2024-01-30T03:23:08;8.20;87.80
44111;DHT22;29774;52.664;5.074;2024-01-30T03:25:34;8.20;87.80
44111;DHT22;29774;52.664;5.074;2024-01-30T03:28:00;8.20;87.70
44111;DHT22;29774;52.664;5.074;2024-01-30T03:30:25;8.20;87.60
44111;DHT22;29774;52.664;5.074;2024-01-30T03:32:51;8.00;87.50
44111;DHT22;29774;52.664;5.074;2024-01-30T03:35:18;8.00;87.70
44111;DHT22;29774;52.664;5.074;2024-01-30T03:37:44;8.20;87.50
44111;DHT22;29774;52.664;5.074;2024-01-30T03:40:10;8.20;87.50
44111;DHT22;29774;52.664;5.074;2024-01-30T03:42:35;8.20;87.30
44111;DHT22;29774;52.664;5.074;2024-01-30T03:45:01;8.20;87.20
44111;DHT22;29774;52.664;5.074;2024-01-30T03:47:27;8.30;87.00
44111;DHT22;29774;52.664;5.074;2024-01-30T03:49:53;8.30;86.80
44111;DHT22;29774;52.664;5.074;2024-01-30T03:52:19;8.40;86.70
44111;DHT22;29774;52.664;5.074;2024-01-30T03:54:44;8.40;86.50
44111;DHT22;29774;52.664;5.074;2024-01-30T03:57:10;8.40;86.30
44111;DHT22;29774;52.664;5.074;2024-01-30T03:59:35;8.50;86.10
44111;DHT22;29774;52.664;5.074;2024-01-30T04:02:01;8.50;85.90
44111;DHT22;29774;52.664;5.074;2024-01-30T04:04:27;8.50;85.80
44111;DHT22;29774;52.664;5.074;2024-01-30T04:06:52;8.50;85.70
44111;DHT22;29774;52.664;5.074;2024-01-30T04:09:18;8.40;85.60
44111;DHT22;29774;52.664;5.074;2024-01-30T04:11:44;8.50;85.60
44111;DHT22;29774;52.664;5.074;2024-01-30T04:14:10;8.40;85.60
44111;DHT22;29774;52.664;5.074;2024-01-30T04:16:35;8.30;85.60
44111;DHT22;29774;52.664;5.074;2024-01-30T04:19:01;8.40;85.60
44111;DHT22;29774;52.664;5.074;2024-01-30T04:21:27;8.30;85.60
44111;DHT22;29774;52.664;5.074;2024-01-30T04:23:53;8.30;85.60
44111;DHT22;29774;52.664;5.074;2024-01-30T04:26:18;8.40;85.50
44111;DHT22;29774;52.664;5.074;2024-01-30T04:28:45;8.40;85.30
44111;DHT22;29774;52.664;5.074;2024-01-30T04:31:11;8.50;85.30
44111;DHT22;29774;52.664;5.074;2024-01-30T04:33:37;8.40;85.10
44111;DHT22;29774;52.664;5.074;2024-01-30T04:36:03;8.40;85.10
44111;DHT22;29774;52.664;5.074;2024-01-30T04:38:29;8.40;85.20
44111;DHT22;29774;52.664;5.074;2024-01-30T04:40:54;8.40;85.20
44111;DHT22;29774;52.664;5.074;2024-01-30T04:43:20;8.50;85.10
44111;DHT22;29774;52.664;5.074;2024-01-30T04:45:47;8.40;85.10
44111;DHT22;29774;52.664;5.074;2024-01-30T04:48:12;8.60;84.90
44111;DHT22;29774;52.664;5.074;2024-01-30T04:50:39;8.60;84.70
44111;DHT22;29774;52.664;5.074;2024-01-30T04:53:04;8.60;84.60
44111;DHT22;29774;52.664;5.074;2024-01-30T04:55:30;8.60;84.50
44111;DHT22;29774;52.664;5.074;2024-01-30T04:57:55;8.70;84.30
44111;DHT22;29774;52.664;5.074;2024-01-30T05:00:21;8.70;84.20
44111;DHT22;29774;52.664;5.074;2024-01-30T05:02:47;8.70;84.10
44111;DHT22;29774;52.664;5.074;2024-01-30T05:05:12;8.60;84.30
44111;DHT22;29774;52.664;5.074;2024-01-30T05:07:40;8.60;84.20
44111;DHT22;29774;52.664;5.074;2024-01-30T05:10:06;8.70;84.20
44111;DHT22;29774;52.664;5.074;2024-01-30T05:12:32;8.70;84.00
44111;DHT22;29774;52.664;5.074;2024-01-30T05:14:58;8.70;83.70
44111;DHT22;29774;52.664;5.074;2024-01-30T05:17:23;8.70;83.90
44111;DHT22;29774;52.664;5.074;2024-01-30T05:19:49;8.60;84.00
44111;DHT22;29774;52.664;5.074;2024-01-30T05:22:14;8.60;84.00
44111;DHT22;29774;52.664;5.074;2024-01-30T05:24:41;8.50;84.00
44111;DHT22;29774;52.664;5.074;2024-01-30T05:27:08;8.60;84.20
44111;DHT22;29774;52.664;5.074;2024-01-30T05:29:33;8.50;84.30
44111;DHT22;29774;52.664;5.074;2024-01-30T05:31:59;8.30;84.70
44111;DHT22;29774;52.664;5.074;2024-01-30T05:34:24;8.30;84.90
44111;DHT22;29774;52.664;5.074;2024-01-30T05:36:50;8.20;85.10
44111;DHT22;29774;52.664;5.074;2024-01-30T05:39:16;8.40;85.20
44111;DHT22;29774;52.664;5.074;2024-01-30T05:41:41;8.30;85.10
44111;DHT22;29774;52.664;5.074;2024-01-30T05:44:07;8.30;85.20
44111;DHT22;29774;52.664;5.074;2024-01-30T05:46:33;8.20;85.30
44111;DHT22;29774;52.664;5.074;2024-01-30T05:48:59;8.30;85.30
44111;DHT22;29774;52.664;5.074;2024-01-30T05:51:25;8.50;85.10
44111;DHT22;29774;52.664;5.074;2024-01-30T05:53:50;8.50;85.10
44111;DHT22;29774;52.664;5.074;2024-01-30T05:56:16;8.50;84.90
44111;DHT22;29774;52.664;5.074;2024-01-30T05:58:41;8.50;84.90
44111;DHT22;29774;52.664;5.074;2024-01-30T06:01:08;8.50;84.90
44111;DHT22;29774;52.664;5.074;2024-01-30T06:03:35;8.50;84.80
44111;DHT22;29774;52.664;5.074;2024-01-30T06:06:01;8.50;84.80
44111;DHT22;29774;52.664;5.074;2024-01-30T06:08:27;8.50;84.90
44111;DHT22;29774;52.664;5.074;2024-01-30T06:10:52;8.40;85.10
44111;DHT22;29774;52.664;5.074;2024-01-30T06:13:18;8.20;85.50
44111;DHT22;29774;52.664;5.074;2024-01-30T06:15:43;8.20;85.70
44111;DHT22;29774;52.664;5.074;2024-01-30T06:18:09;8.20;85.80
44111;DHT22;29774;52.664;5.074;2024-01-30T06:20:35;8.20;85.90
44111;DHT22;29774;52.664;5.074;2024-01-30T06:23:01;8.30;85.80
44111;DHT22;29774;52.664;5.074;2024-01-30T06:25:26;8.30;85.80
44111;DHT22;29774;52.664;5.074;2024-01-30T06:27:52;8.30;85.70
44111;DHT22;29774;52.664;5.074;2024-01-30T06:30:18;8.40;85.70
44111;DHT22;29774;52.664;5.074;2024-01-30T06:32:44;8.40;85.60
44111;DHT22;29774;52.664;5.074;2024-01-30T06:35:09;8.60;85.40
44111;DHT22;29774;52.664;5.074;2024-01-30T06:37:36;8.60;85.10
44111;DHT22;29774;52.664;5.074;2024-01-30T06:40:02;8.50;84.90
44111;DHT22;29774;52.664;5.074;2024-01-30T06:42:28;8.70;84.60
44111;DHT22;29774;52.664;5.074;2024-01-30T06:44:53;8.90;83.80
44111;DHT22;29774;52.664;5.074;2024-01-30T06:47:19;9.00;83.30
44111;DHT22;29774;52.664;5.074;2024-01-30T06:49:44;9.10;82.80
44111;DHT22;29774;52.664;5.074;2024-01-30T06:52:10;9.10;82.50
44111;DHT22;29774;52.664;5.074;2024-01-30T06:54:37;9.20;81.80
44111;DHT22;29774;52.664;5.074;2024-01-30T06:57:02;9.20;81.40
44111;DHT22;29774;52.664;5.074;2024-01-30T06:59:28;9.20;81.00
44111;DHT22;29774;52.664;5.074;2024-01-30T07:01:54;9.20;80.70
44111;DHT22;29774;52.664;5.074;2024-01-30T07:04:19;9.20;81.20
44111;DHT22;29774;52.664;5.074;2024-01-30T07:06:45;9.20;81.00
44111;DHT22;29774;52.664;5.074;2024-01-30T07:09:12;9.30;80.90
44111;DHT22;29774;52.664;5.074;2024-01-30T07:11:39;9.30;80.80
44111;DHT22;29774;52.664;5.074;2024-01-30T07:14:04;9.30;80.80
44111;DHT22;29774;52.664;5.074;2024-01-30T07:16:30;9.30;81.00
44111;DHT22;29774;52.664;5.074;2024-01-30T07:18:56;9.40;81.00
44111;DHT22;29774;52.664;5.074;2024-01-30T07:21:22;9.40;81.40
44111;DHT22;29774;52.664;5.074;2024-01-30T07:23:53;9.40;81.10
44111;DHT22;29774;52.664;5.074;2024-01-30T07:26:19;9.50;81.00
44111;DHT22;29774;52.664;5.074;2024-01-30T07:28:44;9.50;81.10
44111;DHT22;29774;52.664;5.074;2024-01-30T07:31:10;9.60;80.80
44111;DHT22;29774;52.664;5.074;2024-01-30T07:33:35;9.70;80.20
44111;DHT22;29774;52.664;5.074;2024-01-30T07:36:01;9.70;80.00
44111;DHT22;29774;52.664;5.074;2024-01-30T07:38:26;9.70;79.40
44111;DHT22;29774;52.664;5.074;2024-01-30T07:40:52;9.70;79.50
44111;DHT22;29774;52.664;5.074;2024-01-30T07:43:18;9.70;79.60
44111;DHT22;29774;52.664;5.074;2024-01-30T07:45:45;9.70;79.40
44111;DHT22;29774;52.664;5.074;2024-01-30T07:48:11;9.80;79.20
44111;DHT22;29774;52.664;5.074;2024-01-30T07:50:36;9.70;79.50
44111;DHT22;29774;52.664;5.074;2024-01-30T07:53:02;9.70;79.90
44111;DHT22;29774;52.664;5.074;2024-01-30T07:55:28;9.70;79.50
44111;DHT22;29774;52.664;5.074;2024-01-30T07:57:55;9.70;80.20
44111;DHT22;29774;52.664;5.074;2024-01-30T08:00:21;9.70;80.10
44111;DHT22;29774;52.664;5.074;2024-01-30T08:02:47;9.70;80.10
44111;DHT22;29774;52.664;5.074;2024-01-30T08:05:13;9.70;80.20
44111;DHT22;29774;52.664;5.074;2024-01-30T08:07:43;9.70;81.30
44111;DHT22;29774;52.664;5.074;2024-01-30T08:10:11;9.70;80.60
44111;DHT22;29774;52.664;5.074;2024-01-30T08:12:37;9.70;80.50
44111;DHT22;29774;52.664;5.074;2024-01-30T08:15:03;9.70;80.20
44111;DHT22;29774;52.664;5.074;2024-01-30T08:17:28;9.70;80.40
44111;DHT22;29774;52.664;5.074;2024-01-30T08:19:54;9.70;81.20
44111;DHT22;29774;52.664;5.074;2024-01-30T08:22:19;9.70;80.40
44111;DHT22;29774;52.664;5.074;2024-01-30T08:24:45;9.70;80.40
44111;DHT22;29774;52.664;5.074;2024-01-30T08:27:11;9.80;80.70
44111;DHT22;29774;52.664;5.074;2024-01-30T08:29:37;9.70;81.00
44111;DHT22;29774;52.664;5.074;2024-01-30T08:32:04;9.70;80.90
44111;DHT22;29774;52.664;5.074;2024-01-30T08:34:30;9.80;80.50
44111;DHT22;29774;52.664;5.074;2024-01-30T08:36:56;9.80;79.90
44111;DHT22;29774;52.664;5.074;2024-01-30T08:39:21;9.80;80.00
44111;DHT22;29774;52.664;5.074;2024-01-30T08:41:47;9.90;80.50
44111;DHT22;29774;52.664;5.074;2024-01-30T08:44:13;9.90;79.50
44111;DHT22;29774;52.664;5.074;2024-01-30T08:46:38;9.90;79.10
44111;DHT22;29774;52.664;5.074;2024-01-30T08:49:04;10.00;79.30
44111;DHT22;29774;52.664;5.074;2024-01-30T08:51:30;10.00;79.10
44111;DHT22;29774;52.664;5.074;2024-01-30T08:53:56;10.00;78.80
44111;DHT22;29774;52.664;5.074;2024-01-30T08:56:22;10.00;79.90
44111;DHT22;29774;52.664;5.074;2024-01-30T08:58:48;10.00;79.90
44111;DHT22;29774;52.664;5.074;2024-01-30T09:01:14;10.00;81.00
44111;DHT22;29774;52.664;5.074;2024-01-30T09:03:39;10.00;80.60
44111;DHT22;29774;52.664;5.074;2024-01-30T09:06:12;9.90;79.60
44111;DHT22;29774;52.664;5.074;2024-01-30T09:08:38;10.00;78.90
44111;DHT22;29774;52.664;5.074;2024-01-30T09:11:14;10.20;78.40
44111;DHT22;29774;52.664;5.074;2024-01-30T09:13:40;10.40;76.90
44111;DHT22;29774;52.664;5.074;2024-01-30T09:16:06;10.60;76.10
44111;DHT22;29774;52.664;5.074;2024-01-30T09:18:32;10.60;75.90
44111;DHT22;29774;52.664;5.074;2024-01-30T09:20:58;10.60;76.20
44111;DHT22;29774;52.664;5.074;2024-01-30T09:23:25;10.60;75.60
44111;DHT22;29774;52.664;5.074;2024-01-30T09:25:50;10.60;75.80
44111;DHT22;29774;52.664;5.074;2024-01-30T09:28:17;10.60;75.90
44111;DHT22;29774;52.664;5.074;2024-01-30T09:30:43;10.60;76.10
44111;DHT22;29774;52.664;5.074;2024-01-30T09:33:08;10.70;75.90
44111;DHT22;29774;52.664;5.074;2024-01-30T09:35:34;10.70;75.60
44111;DHT22;29774;52.664;5.074;2024-01-30T09:38:00;10.70;75.50
44111;DHT22;29774;52.664;5.074;2024-01-30T09:40:26;10.70;75.50
44111;DHT22;29774;52.664;5.074;2024-01-30T09:42:52;10.70;75.30
44111;DHT22;29774;52.664;5.074;2024-01-30T09:45:25;10.80;75.40
44111;DHT22;29774;52.664;5.074;2024-01-30T09:47:51;10.80;75.10
44111;DHT22;29774;52.664;5.074;2024-01-30T09:50:18;10.70;75.10
44111;DHT22;29774;52.664;5.074;2024-01-30T09:52:44;10.70;75.10
44111;DHT22;29774;52.664;5.074;2024-01-30T09:55:10;10.70;75.10
44111;DHT22;29774;52.664;5.074;2024-01-30T09:57:35;10.70;75.20
44111;DHT22;29774;52.664;5.074;2024-01-30T10:00:02;10.70;75.20
44111;DHT22;29774;52.664;5.074;2024-01-30T10:02:28;10.70;75.50
44111;DHT22;29774;52.664;5.074;2024-01-30T10:04:53;10.80;75.60
44111;DHT22;29774;52.664;5.074;2024-01-30T10:07:19;10.80;75.30
44111;DHT22;29774;52.664;5.074;2024-01-30T10:09:45;10.80;75.50
44111;DHT22;29774;52.664;5.074;2024-01-30T10:12:12;10.70;75.30
44111;DHT22;29774;52.664;5.074;2024-01-30T10:14:41;10.70;75.60
44111;DHT22;29774;52.664;5.074;2024-01-30T10:17:12;10.70;75.40
44111;DHT22;29774;52.664;5.074;2024-01-30T10:19:38;10.70;75.70
44111;DHT22;29774;52.664;5.074;2024-01-30T10:22:05;10.70;75.70
44111;DHT22;29774;52.664;5.074;2024-01-30T10:24:31;10.70;75.90
44111;DHT22;29774;52.664;5.074;2024-01-30T10:26:56;10.60;75.80
44111;DHT22;29774;52.664;5.074;2024-01-30T10:29:22;10.70;76.00
44111;DHT22;29774;52.664;5.074;2024-01-30T10:32:04;10.70;76.20
44111;DHT22;29774;52.664;5.074;2024-01-30T10:34:30;10.70;75.90
44111;DHT22;29774;52.664;5.074;2024-01-30T10:37:00;10.70;75.80
44111;DHT22;29774;52.664;5.074;2024-01-30T10:39:29;10.70;75.70
44111;DHT22;29774;52.664;5.074;2024-01-30T10:42:04;10.70;75.90
44111;DHT22;29774;52.664;5.074;2024-01-30T10:47:35;10.60;76.00
44111;DHT22;29774;52.664;5.074;2024-01-30T10:50:02;10.70;76.00
44111;DHT22;29774;52.664;5.074;2024-01-30T10:52:29;10.60;75.70
44111;DHT22;29774;52.664;5.074;2024-01-30T10:54:56;10.70;75.90
44111;DHT22;29774;52.664;5.074;2024-01-30T10:57:26;10.60;75.80
44111;DHT22;29774;52.664;5.074;2024-01-30T10:59:56;10.60;75.80
44111;DHT22;29774;52.664;5.074;2024-01-30T11:02:23;10.60;76.20
44111;DHT22;29774;52.664;5.074;2024-01-30T11:04:57;10.60;75.90
44111;DHT22;29774;52.664;5.074;2024-01-30T11:07:29;10.60;75.80
44111;DHT22;29774;52.664;5.074;2024-01-30T11:12:27;10.60;75.90
44111;DHT22;29774;52.664;5.074;2024-01-30T11:15:12;10.60;75.80
44111;DHT22;29774;52.664;5.074;2024-01-30T11:20:20;10.80;75.90
44111;DHT22;29774;52.664;5.074;2024-01-30T11:22:47;10.90;75.80
44111;DHT22;29774;52.664;5.074;2024-01-30T11:25:17;10.80;75.70
44111;DHT22;29774;52.664;5.074;2024-01-30T11:27:44;10.80;75.90
44111;DHT22;29774;52.664;5.074;2024-01-30T11:30:10;10.80;75.80
44111;DHT22;29774;52.664;5.074;2024-01-30T11:32:36;10.90;75.60
44111;DHT22;29774;52.664;5.074;2024-01-30T11:35:06;10.90;75.80
44111;DHT22;29774;52.664;5.074;2024-01-30T11:37:37;10.80;75.50
44111;DHT22;29774;52.664;5.074;2024-01-30T11:40:04;10.90;75.80
44111;DHT22;29774;52.664;5.074;2024-01-30T11:42:30;10.80;75.60
44111;DHT22;29774;52.664;5.074;2024-01-30T11:45:00;10.80;75.70
44111;DHT22;29774;52.664;5.074;2024-01-30T11:47:26;10.80;75.80
44111;DHT22;29774;52.664;5.074;2024-01-30T11:49:52;10.80;75.60
44111;DHT22;29774;52.664;5.074;2024-01-30T11:52:18;10.80;75.50
44111;DHT22;29774;52.664;5.074;2024-01-30T11:54:43;10.80;75.90
44111;DHT22;29774;52.664;5.074;2024-01-30T11:57:09;10.80;75.90
44111;DHT22;29774;52.664;5.074;2024-01-30T11:59:35;10.70;75.60
44111;DHT22;29774;52.664;5.074;2024-01-30T12:02:00;10.70;75.60
44111;DHT22;29774;52.664;5.074;2024-01-30T12:04:29;10.70;75.80
44111;DHT22;29774;52.664;5.074;2024-01-30T12:06:55;10.70;75.70
44111;DHT22;29774;52.664;5.074;2024-01-30T12:09:21;10.70;75.70
44111;DHT22;29774;52.664;5.074;2024-01-30T12:11:48;10.80;75.50
44111;DHT22;29774;52.664;5.074;2024-01-30T12:14:14;10.80;75.60
44111;DHT22;29774;52.664;5.074;2024-01-30T12:16:41;10.70;76.20
44111;DHT22;29774;52.664;5.074;2024-01-30T12:19:09;10.70;75.70
44111;DHT22;29774;52.664;5.074;2024-01-30T12:21:35;10.70;75.80
44111;DHT22;29774;52.664;5.074;2024-01-30T12:24:01;10.70;76.10
44111;DHT22;29774;52.664;5.074;2024-01-30T12:26:27;10.70;75.90
44111;DHT22;29774;52.664;5.074;2024-01-30T12:28:56;10.70;75.90
44111;DHT22;29774;52.664;5.074;2024-01-30T12:31:31;10.70;76.10
44111;DHT22;29774;52.664;5.074;2024-01-30T12:33:59;10.60;76.00
44111;DHT22;29774;52.664;5.074;2024-01-30T12:36:25;10.70;76.30
44111;DHT22;29774;52.664;5.074;2024-01-30T12:38:51;10.70;76.60
44111;DHT22;29774;52.664;5.074;2024-01-30T12:41:17;10.60;76.10
44111;DHT22;29774;52.664;5.074;2024-01-30T12:43:43;10.70;76.20
44111;DHT22;29774;52.664;5.074;2024-01-30T12:46:08;10.70;76.10
44111;DHT22;29774;52.664;5.074;2024-01-30T12:48:34;10.70;75.90
44111;DHT22;29774;52.664;5.074;2024-01-30T12:51:00;10.70;75.90
44111;DHT22;29774;52.664;5.074;2024-01-30T12:53:26;10.70;75.90
44111;DHT22;29774;52.664;5.074;2024-01-30T12:55:51;10.70;75.90
44111;DHT22;29774;52.664;5.074;2024-01-30T12:58:18;10.70;76.00
44111;DHT22;29774;52.664;5.074;2024-01-30T13:00:44;10.70;75.80
44111;DHT22;29774;52.664;5.074;2024-01-30T13:03:10;10.70;75.70
44111;DHT22;29774;52.664;5.074;2024-01-30T13:05:36;10.70;76.10
44111;DHT22;29774;52.664;5.074;2024-01-30T13:08:02;10.70;75.90
44111;DHT22;29774;52.664;5.074;2024-01-30T13:10:29;10.60;76.10
44111;DHT22;29774;52.664;5.074;2024-01-30T13:12:54;10.70;76.00
44111;DHT22;29774;52.664;5.074;2024-01-30T13:15:20;10.70;76.00
44111;DHT22;29774;52.664;5.074;2024-01-30T13:17:45;10.70;76.00
44111;DHT22;29774;52.664;5.074;2024-01-30T13:20:14;10.70;76.20
44111;DHT22;29774;52.664;5.074;2024-01-30T13:22:43;10.70;75.90
44111;DHT22;29774;52.664;5.074;2024-01-30T13:25:09;10.80;75.90
44111;DHT22;29774;52.664;5.074;2024-01-30T13:27:35;10.70;76.10
44111;DHT22;29774;52.664;5.074;2024-01-30T13:30:01;10.70;76.40
44111;DHT22;29774;52.664;5.074;2024-01-30T13:32:26;10.70;76.30
44111;DHT22;29774;52.664;5.074;2024-01-30T13:34:52;10.70;76.50
44111;DHT22;29774;52.664;5.074;2024-01-30T13:37:18;10.70;76.20
44111;DHT22;29774;52.664;5.074;2024-01-30T13:39:43;10.70;76.30
44111;DHT22;29774;52.664;5.074;2024-01-30T13:42:09;10.70;76.90
44111;DHT22;29774;52.664;5.074;2024-01-30T13:44:35;10.70;76.70
44111;DHT22;29774;52.664;5.074;2024-01-30T13:47:01;10.70;76.50
44111;DHT22;29774;52.664;5.074;2024-01-30T13:49:27;10.70;76.30
44111;DHT22;29774;52.664;5.074;2024-01-30T13:51:53;10.80;76.20
44111;DHT22;29774;52.664;5.074;2024-01-30T13:54:18;10.70;76.20
44111;DHT22;29774;52.664;5.074;2024-01-30T13:56:44;10.70;76.30
44111;DHT22;29774;52.664;5.074;2024-01-30T13:59:09;10.70;76.40
44111;DHT22;29774;52.664;5.074;2024-01-30T14:01:35;10.70;76.40
44111;DHT22;29774;52.664;5.074;2024-01-30T14:04:01;10.70;76.40
44111;DHT22;29774;52.664;5.074;2024-01-30T14:06:27;10.70;76.40
44111;DHT22;29774;52.664;5.074;2024-01-30T14:08:52;10.70;76.50
44111;DHT22;29774;52.664;5.074;2024-01-30T14:11:18;10.70;76.40
44111;DHT22;29774;52.664;5.074;2024-01-30T14:13:43;10.70;76.60
44111;DHT22;29774;52.664;5.074;2024-01-30T14:16:09;10.60;76.90
44111;DHT22;29774;52.664;5.074;2024-01-30T14:18:35;10.50;77.00
44111;DHT22;29774;52.664;5.074;2024-01-30T14:21:00;10.50;77.50
44111;DHT22;29774;52.664;5.074;2024-01-30T14:23:26;10.50;77.40
44111;DHT22;29774;52.664;5.074;2024-01-30T14:25:52;10.40;77.90
44111;DHT22;29774;52.664;5.074;2024-01-30T14:28:18;10.40;78.10
44111;DHT22;29774;52.664;5.074;2024-01-30T14:30:43;10.30;78.70
44111;DHT22;29774;52.664;5.074;2024-01-30T14:33:09;10.30;78.40
44111;DHT22;29774;52.664;5.074;2024-01-30T14:35:34;10.30;78.10
44111;DHT22;29774;52.664;5.074;2024-01-30T14:38:00;10.40;77.80
44111;DHT22;29774;52.664;5.074;2024-01-30T14:40:26;10.40;78.00
44111;DHT22;29774;52.664;5.074;2024-01-30T14:42:52;10.40;77.90
44111;DHT22;29774;52.664;5.074;2024-01-30T14:45:18;10.40;78.00
44111;DHT22;29774;52.664;5.074;2024-01-30T14:47:43;10.40;78.00
44111;DHT22;29774;52.664;5.074;2024-01-30T14:50:09;10.50;77.90
44111;DHT22;29774;52.664;5.074;2024-01-30T14:52:35;10.30;78.10
44111;DHT22;29774;52.664;5.074;2024-01-30T14:55:01;10.40;78.30
44111;DHT22;29774;52.664;5.074;2024-01-30T14:57:28;10.40;78.30
44111;DHT22;29774;52.664;5.074;2024-01-30T14:59:53;10.40;77.80
44111;DHT22;29774;52.664;5.074;2024-01-30T15:02:19;10.50;77.90
44111;DHT22;29774;52.664;5.074;2024-01-30T15:04:45;10.40;77.60
44111;DHT22;29774;52.664;5.074;2024-01-30T15:07:11;10.40;77.80
44111;DHT22;29774;52.664;5.074;2024-01-30T15:09:36;10.40;77.60
44111;DHT22;29774;52.664;5.074;2024-01-30T15:12:02;10.50;77.40
44111;DHT22;29774;52.664;5.074;2024-01-30T15:14:28;10.60;77.20
44111;DHT22;29774;52.664;5.074;2024-01-30T15:16:53;10.50;77.40
44111;DHT22;29774;52.664;5.074;2024-01-30T15:19:19;10.40;77.50
44111;DHT22;29774;52.664;5.074;2024-01-30T15:21:45;10.40;77.90
44111;DHT22;29774;52.664;5.074;2024-01-30T15:24:10;10.20;78.60
44111;DHT22;29774;52.664;5.074;2024-01-30T15:26:40;10.20;78.60
44111;DHT22;29774;52.664;5.074;2024-01-30T15:29:06;10.20;78.80
44111;DHT22;29774;52.664;5.074;2024-01-30T15:31:31;10.20;78.90
44111;DHT22;29774;52.664;5.074;2024-01-30T15:33:57;10.20;78.90
44111;DHT22;29774;52.664;5.074;2024-01-30T15:36:23;10.30;78.90
44111;DHT22;29774;52.664;5.074;2024-01-30T15:38:49;10.20;79.00
44111;DHT22;29774;52.664;5.074;2024-01-30T15:41:14;10.40;78.60